createdAt,value
2023-02-03T00:00:27.052Z,9.26
2023-02-03T00:01:26.769Z,9.20
2023-02-03T00:02:26.717Z,9.34
2023-02-03T00:03:26.698Z,9.41
2023-02-03T00:04:26.637Z,9.24
2023-02-03T00:05:26.583Z,9.24
2023-02-03T00:06:26.537Z,9.24
2023-02-03T00:07:26.497Z,9.30
2023-02-03T00:08:26.456Z,9.30
2023-02-03T00:09:26.427Z,9.26
2023-02-03T00:10:26.660Z,9.24
2023-02-03T00:11:26.332Z,9.20
2023-02-03T00:12:26.286Z,9.26
2023-02-03T00:13:26.248Z,9.30
2023-02-03T00:14:26.201Z,9.24
2023-02-03T00:15:26.165Z,9.23
2023-02-03T00:16:26.200Z,9.26
2023-02-03T00:17:26.088Z,9.31
2023-02-03T00:18:26.041Z,9.24
2023-02-03T00:19:25.997Z,9.35
2023-02-03T00:20:26.332Z,9.30
2023-02-03T00:21:25.911Z,9.23
2023-02-03T00:22:25.888Z,9.34
2023-02-03T00:23:25.826Z,9.35
2023-02-03T00:24:25.791Z,9.34
2023-02-03T00:25:25.743Z,9.38
2023-02-03T00:26:25.695Z,9.26
2023-02-03T00:27:25.657Z,9.30
2023-02-03T00:28:25.612Z,9.30
2023-02-03T00:29:25.578Z,9.34
2023-02-03T00:30:25.675Z,9.30
2023-02-03T00:31:25.566Z,9.30
2023-02-03T00:32:25.564Z,9.38
2023-02-03T00:33:25.416Z,9.20
2023-02-03T00:34:25.367Z,9.23
2023-02-03T00:35:25.337Z,9.35
2023-02-03T00:36:25.321Z,9.27
2023-02-03T00:37:25.235Z,9.26
2023-02-03T00:38:25.193Z,9.40
2023-02-03T00:39:25.150Z,9.48
2023-02-03T00:40:25.534Z,9.35
2023-02-03T00:41:25.081Z,9.35
2023-02-03T00:42:25.020Z,9.35
2023-02-03T00:43:24.986Z,9.42
2023-02-03T00:44:24.943Z,9.42
2023-02-03T00:45:24.899Z,9.32
2023-02-03T00:46:24.859Z,9.34
2023-02-03T00:47:24.826Z,9.32
2023-02-03T00:48:24.769Z,9.35
2023-02-03T00:49:24.739Z,9.32
2023-02-03T00:50:25.031Z,9.30
2023-02-03T00:51:24.649Z,9.35
2023-02-03T00:52:24.596Z,9.42
2023-02-03T00:53:24.576Z,9.32
2023-02-03T00:54:24.514Z,9.38
2023-02-03T00:55:24.478Z,9.38
2023-02-03T00:56:24.431Z,9.41
2023-02-03T00:57:24.400Z,9.32
2023-02-03T00:58:24.362Z,9.42
2023-02-03T00:59:24.323Z,9.41
2023-02-03T01:00:24.756Z,9.40
2023-02-03T01:01:24.316Z,9.40
2023-02-03T01:02:24.216Z,9.41
2023-02-03T01:03:24.193Z,9.38
2023-02-03T01:04:24.107Z,9.27
2023-02-03T01:05:24.057Z,9.35
2023-02-03T01:06:24.014Z,9.32
2023-02-03T01:07:24.840Z,9.37
2023-02-03T01:08:23.940Z,9.40
2023-02-03T01:09:23.886Z,9.44
2023-02-03T01:10:24.050Z,9.34
2023-02-03T01:11:23.810Z,9.38
2023-02-03T01:12:23.763Z,9.44
2023-02-03T01:13:23.720Z,9.30
2023-02-03T01:14:23.679Z,9.50
2023-02-03T01:15:23.655Z,9.44
2023-02-03T01:16:23.644Z,9.49
2023-02-03T01:17:23.557Z,9.44
2023-02-03T01:18:23.544Z,9.37
2023-02-03T01:19:23.482Z,9.49
2023-02-03T01:20:23.423Z,9.40
2023-02-03T01:21:23.397Z,9.48
2023-02-03T01:22:23.354Z,9.34
2023-02-03T01:23:23.306Z,9.44
2023-02-03T01:24:23.259Z,9.40
2023-02-03T01:25:23.246Z,9.44
2023-02-03T01:26:23.170Z,9.32
2023-02-03T01:27:23.152Z,9.40
2023-02-03T01:28:23.096Z,9.52
2023-02-03T01:29:23.054Z,9.48
2023-02-03T01:30:23.255Z,9.38
2023-02-03T01:31:23.130Z,9.40
2023-02-03T01:32:22.917Z,9.40
2023-02-03T01:33:22.886Z,9.44
2023-02-03T01:34:22.853Z,9.44
2023-02-03T01:35:22.818Z,9.48
2023-02-03T01:36:22.751Z,9.50
2023-02-03T01:37:22.721Z,9.38
2023-02-03T01:38:22.706Z,9.56
2023-02-03T01:39:22.632Z,9.42
2023-02-03T01:40:22.619Z,9.48
2023-02-03T01:41:22.579Z,9.35
2023-02-03T01:42:22.517Z,9.42
2023-02-03T01:43:22.461Z,9.49
2023-02-03T01:44:22.431Z,9.42
2023-02-03T01:45:22.382Z,9.35
2023-02-03T01:46:22.375Z,9.37
2023-02-03T01:47:22.299Z,9.37
2023-02-03T01:48:22.254Z,9.44
2023-02-03T01:49:22.208Z,9.42
2023-02-03T01:50:22.171Z,9.44
2023-02-03T01:51:22.135Z,9.42
2023-02-03T01:52:22.091Z,9.45
2023-02-03T01:53:22.044Z,9.42
2023-02-03T01:54:22.000Z,9.35
2023-02-03T01:55:21.973Z,9.40
2023-02-03T01:56:21.909Z,9.38
2023-02-03T01:57:21.878Z,9.53
2023-02-03T01:58:21.855Z,9.37
2023-02-03T01:59:21.795Z,9.37
2023-02-03T02:00:21.744Z,9.45
2023-02-03T02:01:21.753Z,9.38
2023-02-03T02:02:21.707Z,9.42
2023-02-03T02:03:21.626Z,9.45
2023-02-03T02:04:21.585Z,9.37
2023-02-03T02:05:21.571Z,9.44
2023-02-03T02:06:21.500Z,9.44
2023-02-03T02:07:21.460Z,9.38
2023-02-03T02:08:21.415Z,9.42
2023-02-03T02:09:21.377Z,9.49
2023-02-03T02:10:21.338Z,9.49
2023-02-03T02:11:21.289Z,9.50
2023-02-03T02:12:21.236Z,9.50
2023-02-03T02:13:21.199Z,9.55
2023-02-03T02:14:21.163Z,9.56
2023-02-03T02:15:21.141Z,9.52
2023-02-03T02:16:21.128Z,9.60
2023-02-03T02:17:21.036Z,9.59
2023-02-03T02:18:20.986Z,9.52
2023-02-03T02:19:20.951Z,9.56
2023-02-03T02:20:21.035Z,9.59
2023-02-03T02:21:20.885Z,9.55
2023-02-03T02:22:20.830Z,9.53
2023-02-03T02:23:20.794Z,9.53
2023-02-03T02:24:20.733Z,9.59
2023-02-03T02:25:20.722Z,9.62
2023-02-03T02:26:20.653Z,9.71
2023-02-03T02:27:20.639Z,9.60
2023-02-03T02:28:20.624Z,9.63
2023-02-03T02:29:20.532Z,9.65
2023-02-03T02:30:20.486Z,9.74
2023-02-03T02:31:20.547Z,9.62
2023-02-03T02:32:20.398Z,9.67
2023-02-03T02:33:20.374Z,9.60
2023-02-03T02:34:20.327Z,9.60
2023-02-03T02:35:20.275Z,9.60
2023-02-03T02:36:20.255Z,9.55
2023-02-03T02:37:20.212Z,9.65
2023-02-03T02:38:20.154Z,9.59
2023-02-03T02:39:20.114Z,9.59
2023-02-03T02:40:20.059Z,9.62
2023-02-03T02:41:20.035Z,9.60
2023-02-03T02:42:19.976Z,9.67
2023-02-03T02:43:19.957Z,9.60
2023-02-03T02:44:19.893Z,9.58
2023-02-03T02:45:19.856Z,9.60
2023-02-03T02:46:19.859Z,9.63
2023-02-03T02:47:19.781Z,9.63
2023-02-03T02:48:19.727Z,9.59
2023-02-03T02:49:19.698Z,9.56
2023-02-03T02:50:19.663Z,9.62
2023-02-03T02:51:19.604Z,9.55
2023-02-03T02:52:19.562Z,9.55
2023-02-03T02:53:19.532Z,9.62
2023-02-03T02:54:19.483Z,9.50
2023-02-03T02:55:19.432Z,9.48
2023-02-03T02:56:19.390Z,9.65
2023-02-03T02:57:19.348Z,9.67
2023-02-03T02:58:19.305Z,9.55
2023-02-03T02:59:19.284Z,9.62
2023-02-03T03:00:19.221Z,9.53
2023-02-03T03:01:19.408Z,9.63
2023-02-03T03:02:19.139Z,9.65
2023-02-03T03:03:19.099Z,9.55
2023-02-03T03:04:19.068Z,9.60
2023-02-03T03:05:19.012Z,9.60
2023-02-03T03:06:18.969Z,9.63
2023-02-03T03:07:18.926Z,9.56
2023-02-03T03:08:18.906Z,9.55
2023-02-03T03:09:18.845Z,9.62
2023-02-03T03:10:18.818Z,9.45
2023-02-03T03:11:18.761Z,9.53
2023-02-03T03:12:18.721Z,9.55
2023-02-03T03:13:18.674Z,9.50
2023-02-03T03:14:18.635Z,9.48
2023-02-03T03:15:18.592Z,9.42
2023-02-03T03:16:18.606Z,9.53
2023-02-03T03:17:18.513Z,9.40
2023-02-03T03:18:18.468Z,9.44
2023-02-03T03:19:18.421Z,9.50
2023-02-03T03:20:18.392Z,9.50
2023-02-03T03:21:18.338Z,9.50
2023-02-03T03:22:18.311Z,9.38
2023-02-03T03:23:18.255Z,9.49
2023-02-03T03:24:18.220Z,9.50
2023-02-03T03:25:18.176Z,9.48
2023-02-03T03:26:18.132Z,9.53
2023-02-03T03:27:18.087Z,9.45
2023-02-03T03:28:18.157Z,9.53
2023-02-03T03:29:18.006Z,9.45
2023-02-03T03:30:17.961Z,9.45
2023-02-03T03:31:18.052Z,9.52
2023-02-03T03:32:17.889Z,9.50
2023-02-03T03:33:17.852Z,9.55
2023-02-03T03:34:17.810Z,9.50
2023-02-03T03:35:17.762Z,9.42
2023-02-03T03:36:17.718Z,9.49
2023-02-03T03:37:17.671Z,9.59
2023-02-03T03:38:17.627Z,9.40
2023-02-03T03:39:17.592Z,9.56
2023-02-03T03:40:17.541Z,9.50
2023-02-03T03:41:17.501Z,9.42
2023-02-03T03:42:17.458Z,9.55
2023-02-03T03:43:17.414Z,9.50
2023-02-03T03:44:17.376Z,9.55
2023-02-03T03:45:17.343Z,9.53
2023-02-03T03:46:17.369Z,9.59
2023-02-03T03:47:17.249Z,9.56
2023-02-03T03:48:17.218Z,9.59
2023-02-03T03:49:17.163Z,9.59
2023-02-03T03:50:17.122Z,9.58
2023-02-03T03:51:17.082Z,9.63
2023-02-03T03:52:17.053Z,9.56
2023-02-03T03:53:17.000Z,9.52
2023-02-03T03:54:16.971Z,9.60
2023-02-03T03:55:16.911Z,9.49
2023-02-03T03:56:16.878Z,9.62
2023-02-03T03:57:16.830Z,9.59
2023-02-03T03:58:16.786Z,9.53
2023-02-03T03:59:16.739Z,9.50
2023-02-03T04:00:16.725Z,9.68
2023-02-03T04:01:16.721Z,9.67
2023-02-03T04:02:16.659Z,9.63
2023-02-03T04:03:16.691Z,9.65
2023-02-03T04:04:16.541Z,9.63
2023-02-03T04:05:16.491Z,9.67
2023-02-03T04:06:16.459Z,9.63
2023-02-03T04:07:16.420Z,9.62
2023-02-03T04:08:16.372Z,9.60
2023-02-03T04:09:16.328Z,9.70
2023-02-03T04:10:16.302Z,9.62
2023-02-03T04:11:16.248Z,9.59
2023-02-03T04:12:16.201Z,9.56
2023-02-03T04:13:16.176Z,9.63
2023-02-03T04:14:16.118Z,9.62
2023-02-03T04:15:16.068Z,9.59
2023-02-03T04:16:16.110Z,9.62
2023-02-03T04:17:16.023Z,9.63
2023-02-03T04:18:15.950Z,9.65
2023-02-03T04:19:15.898Z,9.59
2023-02-03T04:20:15.865Z,9.60
2023-02-03T04:21:15.831Z,9.68
2023-02-03T04:22:15.786Z,9.65
2023-02-03T04:23:15.734Z,9.65
2023-02-03T04:24:15.705Z,9.65
2023-02-03T04:25:15.662Z,9.67
2023-02-03T04:26:15.618Z,9.62
2023-02-03T04:27:15.596Z,9.63
2023-02-03T04:28:15.654Z,9.65
2023-02-03T04:29:15.483Z,9.63
2023-02-03T04:30:15.463Z,9.59
2023-02-03T04:31:15.488Z,9.60
2023-02-03T04:32:15.374Z,9.62
2023-02-03T04:33:15.329Z,9.60
2023-02-03T04:34:15.295Z,9.52
2023-02-03T04:35:15.255Z,9.49
2023-02-03T04:36:15.197Z,9.56
2023-02-03T04:37:15.160Z,9.58
2023-02-03T04:38:15.113Z,9.53
2023-02-03T04:39:15.075Z,9.65
2023-02-03T04:40:15.041Z,9.59
2023-02-03T04:41:14.991Z,9.55
2023-02-03T04:42:14.937Z,9.53
2023-02-03T04:43:14.908Z,9.50
2023-02-03T04:44:14.884Z,9.52
2023-02-03T04:45:14.812Z,9.53
2023-02-03T04:46:14.854Z,9.59
2023-02-03T04:47:14.728Z,9.70
2023-02-03T04:48:14.691Z,9.52
2023-02-03T04:49:14.644Z,9.56
2023-02-03T04:50:14.623Z,9.56
2023-02-03T04:51:14.567Z,9.58
2023-02-03T04:52:14.529Z,9.42
2023-02-03T04:53:16.067Z,9.50
2023-02-03T04:54:14.437Z,9.53
2023-02-03T04:55:14.421Z,9.55
2023-02-03T04:56:14.359Z,9.49
2023-02-03T04:57:14.308Z,9.53
2023-02-03T04:58:14.273Z,9.45
2023-02-03T04:59:14.232Z,9.52
2023-02-03T05:00:14.196Z,9.52
2023-02-03T05:01:14.207Z,9.50
2023-02-03T05:02:14.108Z,9.41
2023-02-03T05:03:14.118Z,9.38
2023-02-03T05:04:14.018Z,9.41
2023-02-03T05:05:13.989Z,9.44
2023-02-03T05:06:13.943Z,9.50
2023-02-03T05:07:21.515Z,9.42
2023-02-03T05:08:13.855Z,9.40
2023-02-03T05:09:13.804Z,9.41
2023-02-03T05:10:13.781Z,9.44
2023-02-03T05:11:13.722Z,9.41
2023-02-03T05:12:13.680Z,9.45
2023-02-03T05:13:13.640Z,9.42
2023-02-03T05:14:13.604Z,9.44
2023-02-03T05:15:13.561Z,9.41
2023-02-03T05:16:13.557Z,9.41
2023-02-03T05:17:13.477Z,9.38
2023-02-03T05:18:13.432Z,9.32
2023-02-03T05:19:13.384Z,9.45
2023-02-03T05:20:13.377Z,9.42
2023-02-03T05:21:13.309Z,9.44
2023-02-03T05:22:13.261Z,9.48
2023-02-03T05:23:13.229Z,9.41
2023-02-03T05:24:13.211Z,9.45
2023-02-03T05:25:13.136Z,9.42
2023-02-03T05:26:13.104Z,9.49
2023-02-03T05:27:13.052Z,9.49
2023-02-03T05:28:13.044Z,9.44
2023-02-03T05:29:12.978Z,9.50
2023-02-03T05:30:12.928Z,9.50
2023-02-03T05:31:13.102Z,9.49
2023-02-03T05:32:12.888Z,9.49
2023-02-03T05:33:12.804Z,9.44
2023-02-03T05:34:12.764Z,9.52
2023-02-03T05:35:12.745Z,9.55
2023-02-03T05:36:12.678Z,9.45
2023-02-03T05:37:12.632Z,9.49
2023-02-03T05:38:12.591Z,9.49
2023-02-03T05:39:12.548Z,9.50
2023-02-03T05:40:12.506Z,9.56
2023-02-03T05:41:12.486Z,9.68
2023-02-03T05:42:12.426Z,9.67
2023-02-03T05:43:12.381Z,9.70
2023-02-03T05:44:12.340Z,9.70
2023-02-03T05:45:12.303Z,9.70
2023-02-03T05:46:12.334Z,9.67
2023-02-03T05:47:12.213Z,9.63
2023-02-03T05:48:12.182Z,9.71
2023-02-03T05:49:12.126Z,9.74
2023-02-03T05:50:12.088Z,9.71
2023-02-03T05:51:12.056Z,9.80
2023-02-03T05:52:12.012Z,9.68
2023-02-03T05:53:11.962Z,9.74
2023-02-03T05:54:11.921Z,9.68
2023-02-03T05:55:11.884Z,9.70
2023-02-03T05:56:11.858Z,9.70
2023-02-03T05:57:11.797Z,9.77
2023-02-03T05:58:11.752Z,9.75
2023-02-03T05:59:11.708Z,9.75
2023-02-03T06:00:11.681Z,9.81
2023-02-03T06:01:11.626Z,9.74
2023-02-03T06:02:11.591Z,9.80
2023-02-03T06:03:11.572Z,9.75
2023-02-03T06:04:11.646Z,9.85
2023-02-03T06:05:11.469Z,9.73
2023-02-03T06:06:11.418Z,9.80
2023-02-03T06:07:11.383Z,9.81
2023-02-03T06:08:11.365Z,9.77
2023-02-03T06:09:11.293Z,9.85
2023-02-03T06:10:11.251Z,9.78
2023-02-03T06:11:11.218Z,9.83
2023-02-03T06:12:11.203Z,9.81
2023-02-03T06:13:11.125Z,9.86
2023-02-03T06:14:11.091Z,9.75
2023-02-03T06:15:11.038Z,9.78
2023-02-03T06:16:11.045Z,9.89
2023-02-03T06:17:10.955Z,9.91
2023-02-03T06:18:10.920Z,9.81
2023-02-03T06:19:10.872Z,9.91
2023-02-03T06:20:10.831Z,9.95
2023-02-03T06:21:10.804Z,9.93
2023-02-03T06:22:10.747Z,9.89
2023-02-03T06:23:10.703Z,9.83
2023-02-03T06:24:10.668Z,9.81
2023-02-03T06:25:12.932Z,9.92
2023-02-03T06:26:10.596Z,10.02
2023-02-03T06:27:10.545Z,9.98
2023-02-03T06:28:10.583Z,9.85
2023-02-03T06:29:10.459Z,9.81
2023-02-03T06:30:10.408Z,9.88
2023-02-03T06:31:10.497Z,9.86
2023-02-03T06:32:10.325Z,9.92
2023-02-03T06:33:10.281Z,9.88
2023-02-03T06:34:10.276Z,9.92
2023-02-03T06:35:10.204Z,9.92
2023-02-03T06:36:10.161Z,9.86
2023-02-03T06:37:10.115Z,9.91
2023-02-03T06:38:10.086Z,9.83
2023-02-03T06:39:10.027Z,9.92
2023-02-03T06:40:10.007Z,9.80
2023-02-03T06:41:09.946Z,9.88
2023-02-03T06:42:09.905Z,9.83
2023-02-03T06:43:09.866Z,9.83
2023-02-03T06:44:09.823Z,9.86
2023-02-03T06:45:09.776Z,9.91
2023-02-03T06:46:09.781Z,9.86
2023-02-03T06:47:09.695Z,9.89
2023-02-03T06:48:09.658Z,9.74
2023-02-03T06:49:09.615Z,9.89
2023-02-03T06:50:09.577Z,9.96
2023-02-03T06:51:09.536Z,9.92
2023-02-03T06:52:09.501Z,9.91
2023-02-03T06:53:09.443Z,9.88
2023-02-03T06:54:09.404Z,9.99
2023-02-03T06:55:09.360Z,9.93
2023-02-03T06:56:09.316Z,9.86
2023-02-03T06:57:09.294Z,9.78
2023-02-03T06:58:09.233Z,9.92
2023-02-03T06:59:09.189Z,9.95
2023-02-03T07:00:09.152Z,9.93
2023-02-03T07:01:09.158Z,9.92
2023-02-03T07:02:09.079Z,10.02
2023-02-03T07:03:09.023Z,10.02
2023-02-03T07:04:08.977Z,9.89
2023-02-03T07:05:08.956Z,10.02
2023-02-03T07:06:08.896Z,9.98
2023-02-03T07:07:08.870Z,9.98
2023-02-03T07:08:08.840Z,9.95
2023-02-03T07:09:08.842Z,9.92
2023-02-03T07:10:08.734Z,9.89
2023-02-03T07:11:08.741Z,9.92
2023-02-03T07:12:08.644Z,9.93
2023-02-03T07:13:08.612Z,9.89
2023-02-03T07:14:08.570Z,9.93
2023-02-03T07:15:08.527Z,9.93
2023-02-03T07:16:08.595Z,9.91
2023-02-03T07:17:08.434Z,9.98
2023-02-03T07:18:08.396Z,9.88
2023-02-03T07:19:08.377Z,9.99
2023-02-03T07:20:08.323Z,9.99
2023-02-03T07:21:08.284Z,9.95
2023-02-03T07:22:08.224Z,9.88
2023-02-03T07:23:08.196Z,9.98
2023-02-03T07:24:08.146Z,9.96
2023-02-03T07:25:08.118Z,10.06
2023-02-03T07:26:08.062Z,10.06
2023-02-03T07:27:08.019Z,10.01
2023-02-03T07:28:08.022Z,10.01
2023-02-03T07:29:07.937Z,9.99
2023-02-03T07:30:07.895Z,9.99
2023-02-03T07:31:08.019Z,9.98
2023-02-03T07:32:07.838Z,9.99
2023-02-03T07:33:07.780Z,9.96
2023-02-03T07:34:07.731Z,10.02
2023-02-03T07:35:07.685Z,10.07
2023-02-03T07:36:07.655Z,9.91
2023-02-03T07:37:07.601Z,10.10
2023-02-03T07:38:07.559Z,10.02
2023-02-03T07:39:07.512Z,10.06
2023-02-03T07:40:07.474Z,9.98
2023-02-03T07:41:07.430Z,9.95
2023-02-03T07:42:07.396Z,10.06
2023-02-03T07:43:07.349Z,9.96
2023-02-03T07:44:07.304Z,10.11
2023-02-03T07:45:07.267Z,10.02
2023-02-03T07:46:07.314Z,9.91
2023-02-03T07:47:07.195Z,10.09
2023-02-03T07:48:07.136Z,10.01
2023-02-03T07:49:07.106Z,10.04
2023-02-03T07:50:07.059Z,10.07
2023-02-03T07:51:07.016Z,10.06
2023-02-03T07:52:06.980Z,10.07
2023-02-03T07:53:06.950Z,10.10
2023-02-03T07:54:06.892Z,10.16
2023-02-03T07:55:06.857Z,10.22
2023-02-03T07:56:06.804Z,10.09
2023-02-03T07:57:06.778Z,10.13
2023-02-03T07:58:06.718Z,10.06
2023-02-03T07:59:06.676Z,10.16
2023-02-03T08:00:06.632Z,10.13
2023-02-03T08:01:06.595Z,10.13
2023-02-03T08:02:06.586Z,10.06
2023-02-03T08:03:06.520Z,10.16
2023-02-03T08:04:06.481Z,10.18
2023-02-03T08:05:06.495Z,10.18
2023-02-03T08:06:06.382Z,10.11
2023-02-03T08:07:06.346Z,10.13
2023-02-03T08:08:06.300Z,10.07
2023-02-03T08:09:06.264Z,10.20
2023-02-03T08:10:06.223Z,10.17
2023-02-03T08:11:06.185Z,10.06
2023-02-03T08:12:06.134Z,10.14
2023-02-03T08:13:06.102Z,10.20
2023-02-03T08:14:06.045Z,10.13
2023-02-03T08:15:06.012Z,10.17
2023-02-03T08:16:06.005Z,10.13
2023-02-03T08:17:05.927Z,10.10
2023-02-03T08:18:05.887Z,10.13
2023-02-03T08:19:05.854Z,10.22
2023-02-03T08:20:05.799Z,10.13
2023-02-03T08:21:05.761Z,10.07
2023-02-03T08:22:05.722Z,10.14
2023-02-03T08:23:05.678Z,10.06
2023-02-03T08:24:05.627Z,10.13
2023-02-03T08:25:05.593Z,10.07
2023-02-03T08:26:05.543Z,10.09
2023-02-03T08:27:05.513Z,10.20
2023-02-03T08:28:05.512Z,10.20
2023-02-03T08:29:05.427Z,10.13
2023-02-03T08:30:05.384Z,10.20
2023-02-03T08:31:05.446Z,10.18
2023-02-03T08:32:06.101Z,10.14
2023-02-03T08:33:05.257Z,10.16
2023-02-03T08:34:05.213Z,10.10
2023-02-03T08:35:05.171Z,10.04
2023-02-03T08:36:05.139Z,10.04
2023-02-03T08:37:05.091Z,10.25
2023-02-03T08:38:05.053Z,10.13
2023-02-03T08:39:05.004Z,10.13
2023-02-03T08:40:04.960Z,10.11
2023-02-03T08:41:04.923Z,10.20
2023-02-03T08:42:04.876Z,10.22
2023-02-03T08:43:04.836Z,10.16
2023-02-03T08:44:04.804Z,10.24
2023-02-03T08:45:05.289Z,10.07
2023-02-03T08:46:04.710Z,10.11
2023-02-03T08:47:04.675Z,10.22
2023-02-03T08:48:04.629Z,10.11
2023-02-03T08:49:04.593Z,10.14
2023-02-03T08:50:04.559Z,10.10
2023-02-03T08:51:04.504Z,10.17
2023-02-03T08:52:04.458Z,10.07
2023-02-03T08:53:04.421Z,10.04
2023-02-03T08:54:04.375Z,10.13
2023-02-03T08:55:04.338Z,10.02
2023-02-03T08:56:04.310Z,10.11
2023-02-03T08:57:04.264Z,10.09
2023-02-03T08:58:04.211Z,10.04
2023-02-03T08:59:04.173Z,10.01
2023-02-03T09:00:04.125Z,9.99
2023-02-03T09:01:04.141Z,9.93
2023-02-03T09:02:04.047Z,9.99
2023-02-03T09:03:03.999Z,10.01
2023-02-03T09:04:03.967Z,9.99
2023-02-03T09:05:03.964Z,9.98
2023-02-03T09:06:03.873Z,9.99
2023-02-03T09:07:03.850Z,9.98
2023-02-03T09:08:03.791Z,9.96
2023-02-03T09:09:03.755Z,9.91
2023-02-03T09:10:03.713Z,9.95
2023-02-03T09:11:03.665Z,9.89
2023-02-03T09:12:03.624Z,9.86
2023-02-03T09:13:03.598Z,9.92
2023-02-03T09:14:03.539Z,9.93
2023-02-03T09:15:03.503Z,9.86
2023-02-03T09:16:03.455Z,9.81
2023-02-03T09:17:03.429Z,9.89
2023-02-03T09:18:03.370Z,9.83
2023-02-03T09:19:03.355Z,9.78
2023-02-03T09:20:03.401Z,9.80
2023-02-03T09:21:03.248Z,9.91
2023-02-03T09:22:03.207Z,9.77
2023-02-03T09:23:03.162Z,9.75
2023-02-03T09:24:03.116Z,9.81
2023-02-03T09:25:03.094Z,9.80
2023-02-03T09:26:03.062Z,9.81
2023-02-03T09:27:03.004Z,9.86
2023-02-03T09:28:03.007Z,9.81
2023-02-03T09:29:02.910Z,9.75
2023-02-03T09:30:02.888Z,9.77
2023-02-03T09:31:02.858Z,9.63
2023-02-03T09:32:02.821Z,9.68
2023-02-03T09:33:02.746Z,9.73
2023-02-03T09:34:02.705Z,9.78
2023-02-03T09:35:02.661Z,9.81
2023-02-03T09:36:02.635Z,9.68
2023-02-03T09:37:02.576Z,9.78
2023-02-03T09:38:02.536Z,9.75
2023-02-03T09:39:02.514Z,9.81
2023-02-03T09:40:02.447Z,9.75
2023-02-03T09:41:11.277Z,9.83
2023-02-03T09:42:02.371Z,9.74
2023-02-03T09:43:02.328Z,9.80
2023-02-03T09:44:02.280Z,9.77
2023-02-03T09:45:02.250Z,9.80
2023-02-03T09:46:02.260Z,9.68
2023-02-03T09:47:02.156Z,9.73
2023-02-03T09:48:02.125Z,9.74
2023-02-03T09:49:02.071Z,9.85
2023-02-03T09:50:02.028Z,9.83
2023-02-03T09:51:01.986Z,9.78
2023-02-03T09:52:01.942Z,9.77
2023-02-03T09:53:01.919Z,9.77
2023-02-03T09:54:01.864Z,9.74
2023-02-03T09:55:01.821Z,9.80
2023-02-03T09:56:01.779Z,9.74
2023-02-03T09:57:01.735Z,9.80
2023-02-03T09:58:01.694Z,9.70
2023-02-03T09:59:01.667Z,9.71
2023-02-03T10:00:01.633Z,9.74
2023-02-03T10:01:01.661Z,9.73
2023-02-03T10:02:01.577Z,9.71
2023-02-03T10:03:01.513Z,9.63
2023-02-03T10:04:01.588Z,9.68
2023-02-03T10:05:01.422Z,9.68
2023-02-03T10:06:01.360Z,9.63
2023-02-03T10:07:01.316Z,9.71
2023-02-03T10:08:01.271Z,9.73
2023-02-03T10:09:01.251Z,9.70
2023-02-03T10:10:01.193Z,9.60
2023-02-03T10:11:01.147Z,9.77
2023-02-03T10:12:01.107Z,9.70
2023-02-03T10:13:01.066Z,9.77
2023-02-03T10:14:01.019Z,9.78
2023-02-03T10:15:01.000Z,9.73
2023-02-03T10:16:00.939Z,9.70
2023-02-03T10:17:00.973Z,9.73
2023-02-03T10:18:00.873Z,9.71
2023-02-03T10:19:02.619Z,9.73
2023-02-03T10:20:00.780Z,9.78
2023-02-03T10:21:00.741Z,9.77
2023-02-03T10:22:00.685Z,9.77
2023-02-03T10:23:00.651Z,9.78
2023-02-03T10:24:00.664Z,9.78
2023-02-03T10:25:00.575Z,9.77
2023-02-03T10:26:00.535Z,9.77
2023-02-03T10:27:00.492Z,9.86
2023-02-03T10:28:00.476Z,9.80
2023-02-03T10:29:00.399Z,9.91
2023-02-03T10:30:00.351Z,9.86
2023-02-03T10:31:00.486Z,9.89
2023-02-03T10:32:00.501Z,9.92
2023-02-03T10:33:00.225Z,9.88
2023-02-03T10:34:00.178Z,9.91
2023-02-03T10:35:00.151Z,9.89
2023-02-03T10:36:00.137Z,9.98
2023-02-03T10:37:00.093Z,9.91
2023-02-03T10:38:00.012Z,9.93
2023-02-03T10:38:59.978Z,9.91
2023-02-03T10:39:59.940Z,9.88
2023-02-03T10:40:59.908Z,9.88
2023-02-03T10:41:59.850Z,9.92
2023-02-03T10:42:59.822Z,9.89
2023-02-03T10:43:59.765Z,9.95
2023-02-03T10:44:59.728Z,9.88
2023-02-03T10:45:59.743Z,9.92
2023-02-03T10:46:59.653Z,9.96
2023-02-03T10:47:59.598Z,9.91
2023-02-03T10:48:59.590Z,10.06
2023-02-03T10:49:59.523Z,9.92
2023-02-03T10:50:59.482Z,9.98
2023-02-03T10:51:59.454Z,9.99
2023-02-03T10:52:59.395Z,9.88
2023-02-03T10:53:59.345Z,9.99
2023-02-03T10:54:59.375Z,10.01
2023-02-03T10:55:59.271Z,10.01
2023-02-03T10:56:59.224Z,10.04
2023-02-03T10:57:59.178Z,9.93
2023-02-03T10:58:59.140Z,9.92
2023-02-03T10:59:59.098Z,10.02
2023-02-03T11:00:59.080Z,10.01
2023-02-03T11:01:59.050Z,10.02
2023-02-03T11:02:59.088Z,10.04
2023-02-03T11:03:58.929Z,9.96
2023-02-03T11:04:58.889Z,9.98
2023-02-03T11:05:58.843Z,9.99
2023-02-03T11:06:58.832Z,10.13
2023-02-03T11:08:08.142Z,10.07
2023-02-03T11:08:58.735Z,10.10
2023-02-03T11:09:58.679Z,10.14
2023-02-03T11:10:58.638Z,10.04
2023-02-03T11:11:58.601Z,10.04
2023-02-03T11:12:58.568Z,10.06
2023-02-03T11:13:58.511Z,10.02
2023-02-03T11:14:58.473Z,10.09
2023-02-03T11:15:58.476Z,10.11
2023-02-03T11:16:58.397Z,10.09
2023-02-03T11:17:58.348Z,10.18
2023-02-03T11:18:58.305Z,10.10
2023-02-03T11:19:58.261Z,10.10
2023-02-03T11:20:58.234Z,10.17
2023-02-03T11:21:58.173Z,10.24
2023-02-03T11:22:58.148Z,10.24
2023-02-03T11:23:58.098Z,10.18
2023-02-03T11:24:58.050Z,10.10
2023-02-03T11:25:58.008Z,10.14
2023-02-03T11:26:58.091Z,10.32
2023-02-03T11:27:57.974Z,10.17
2023-02-03T11:28:57.907Z,10.14
2023-02-03T11:29:57.844Z,10.20
2023-02-03T11:30:57.902Z,10.18
2023-02-03T11:31:58.024Z,10.26
2023-02-03T11:32:57.719Z,10.18
2023-02-03T11:33:57.674Z,10.25
2023-02-03T11:34:57.651Z,10.20
2023-02-03T11:35:57.597Z,10.28
2023-02-03T11:36:57.551Z,10.18
2023-02-03T11:37:57.531Z,10.24
2023-02-03T11:38:57.467Z,10.22
2023-02-03T11:39:57.456Z,10.14
2023-02-03T11:40:57.428Z,10.14
2023-02-03T11:41:57.346Z,10.31
2023-02-03T11:42:57.310Z,10.18
2023-02-03T11:43:57.267Z,10.31
2023-02-03T11:44:57.219Z,10.14
2023-02-03T11:45:57.181Z,10.28
2023-02-03T11:46:57.173Z,10.16
2023-02-03T11:47:57.106Z,10.20
2023-02-03T11:48:57.054Z,10.17
2023-02-03T11:49:57.027Z,10.24
2023-02-03T11:50:56.967Z,10.24
2023-02-03T11:51:57.081Z,10.25
2023-02-03T11:52:56.899Z,10.28
2023-02-03T11:53:57.706Z,10.13
2023-02-03T11:54:56.802Z,10.22
2023-02-03T11:55:56.762Z,10.18
2023-02-03T11:56:56.720Z,10.18
2023-02-03T11:57:56.677Z,10.20
2023-02-03T11:58:56.651Z,10.24
2023-02-03T11:59:56.611Z,10.16
2023-02-03T12:00:56.553Z,10.11
2023-02-03T12:01:56.515Z,10.24
2023-02-03T12:02:56.533Z,10.17
2023-02-03T12:03:56.435Z,10.26
2023-02-03T12:04:56.453Z,10.17
2023-02-03T12:05:56.382Z,10.20
2023-02-03T12:06:56.307Z,10.13
2023-02-03T12:07:56.280Z,10.24
2023-02-03T12:08:56.222Z,10.24
2023-02-03T12:09:56.188Z,10.26
2023-02-03T12:10:56.150Z,10.18
2023-02-03T12:11:56.103Z,10.28
2023-02-03T12:12:56.058Z,10.24
2023-02-03T12:13:56.018Z,10.29
2023-02-03T12:14:55.973Z,10.28
2023-02-03T12:15:55.967Z,10.24
2023-02-03T12:16:55.900Z,10.18
2023-02-03T12:17:55.850Z,10.22
2023-02-03T12:18:55.827Z,10.24
2023-02-03T12:19:55.774Z,10.34
2023-02-03T12:20:55.725Z,10.34
2023-02-03T12:21:55.684Z,10.26
2023-02-03T12:22:55.651Z,10.35
2023-02-03T12:23:55.622Z,10.28
2023-02-03T12:24:55.558Z,10.25
2023-02-03T12:25:55.520Z,10.26
2023-02-03T12:26:55.476Z,10.36
2023-02-03T12:27:55.475Z,10.28
2023-02-03T12:28:55.408Z,10.32
2023-02-03T12:29:55.361Z,10.35
2023-02-03T12:30:55.330Z,10.36
2023-02-03T12:31:55.355Z,10.35
2023-02-03T12:32:55.249Z,10.29
2023-02-03T12:33:55.215Z,10.32
2023-02-03T12:34:55.146Z,10.38
2023-02-03T12:35:55.107Z,10.38
2023-02-03T12:36:55.062Z,10.34
2023-02-03T12:37:55.028Z,10.26
2023-02-03T12:38:54.990Z,10.34
2023-02-03T12:39:54.942Z,10.43
2023-02-03T12:40:54.897Z,10.44
2023-02-03T12:41:54.855Z,10.43
2023-02-03T12:42:54.814Z,10.43
2023-02-03T12:43:54.775Z,10.46
2023-02-03T12:44:54.749Z,10.42
2023-02-03T12:45:54.729Z,10.43
2023-02-03T12:46:54.650Z,10.43
2023-02-03T12:47:54.609Z,10.43
2023-02-03T12:48:54.579Z,10.38
2023-02-03T12:49:54.526Z,10.49
2023-02-03T12:50:54.498Z,10.49
2023-02-03T12:51:54.450Z,10.51
2023-02-03T12:52:54.403Z,10.47
2023-02-03T12:53:54.369Z,10.46
2023-02-03T12:54:54.319Z,10.63
2023-02-03T12:55:54.297Z,10.66
2023-02-03T12:56:54.250Z,10.63
2023-02-03T12:57:54.203Z,10.60
2023-02-03T12:58:54.168Z,10.60
2023-02-03T12:59:54.121Z,10.65
2023-02-03T13:00:54.088Z,10.52
2023-02-03T13:01:54.081Z,10.66
2023-02-03T13:02:53.998Z,10.69
2023-02-03T13:03:53.951Z,10.63
2023-02-03T13:04:56.733Z,10.63
2023-02-03T13:05:53.871Z,10.73
2023-02-03T13:06:53.832Z,10.76
2023-02-03T13:07:53.786Z,10.72
2023-02-03T13:08:53.763Z,10.70
2023-02-03T13:09:53.701Z,10.78
2023-02-03T13:10:53.659Z,10.80